Time;durP1;ratioP1;P1;durP2;ratioP2;P2;SDS_P1;SDS_P2;PMS_P1;PMS_P2;Temp;Humidity;BMP_temperature;BMP_pressure;BME280_temperature;BME280_humidity;BME280_pressure;Samples;Min_cycle;Max_cycle;Signal;HPM_P1;HPM_P2
2021/04/08 00:00:17;;;;;;;7.37;4.25;;;;;;;-0.51;78.06;98739.88;1702947;84;21169;-61
2021/04/08 00:02:45;;;;;;;8.63;5.08;;;;;;;-0.52;78.04;98746.26;1683504;84;21612;-60
2021/04/08 00:05:14;;;;;;;8.55;4.90;;;;;;;-0.51;77.99;98743.89;1661778;85;21193;-61
2021/04/08 00:07:43;;;;;;;13.10;5.47;;;;;;;-0.51;77.91;98743.89;1694380;82;21300;-61
2021/04/08 00:10:12;;;;;;;7.58;4.37;;;;;;;-0.50;77.87;98751.39;1706413;82;21165;-61
2021/04/08 00:12:42;;;;;;;10.70;5.45;;;;;;;-0.50;77.82;98747.38;1652764;82;21300;-60
2021/04/08 00:15:13;;;;;;;8.20;4.62;;;;;;;-0.52;77.80;98751.60;1699002;82;21166;-60
2021/04/08 00:17:42;;;;;;;8.18;4.42;;;;;;;-0.51;77.71;98750.57;1689092;83;21744;-60
2021/04/08 00:20:15;;;;;;;9.38;4.50;;;;;;;-0.51;77.69;98757.25;1689676;84;21315;-60
2021/04/08 00:22:42;;;;;;;7.90;4.60;;;;;;;-0.49;77.49;98754.34;1691871;82;21151;-60
2021/04/08 00:25:13;;;;;;;9.85;5.03;;;;;;;-0.48;77.40;98765.34;1703890;83;21149;-60
2021/04/08 00:27:42;;;;;;;9.10;4.60;;;;;;;-0.51;77.44;98773.30;1666794;84;21158;-60
2021/04/08 00:30:12;;;;;;;8.75;4.75;;;;;;;-0.55;77.47;98768.61;1707610;84;21169;-60
2021/04/08 00:32:40;;;;;;;8.80;4.70;;;;;;;-0.58;77.58;98769.06;1668564;84;21344;-59
2021/04/08 00:35:08;;;;;;;8.20;4.47;;;;;;;-0.56;77.54;98768.30;1688221;84;21305;-60
2021/04/08 00:37:36;;;;;;;11.57;5.30;;;;;;;-0.59;77.59;98771.43;1693181;84;21370;-60
2021/04/08 00:40:11;;;;;;;9.63;5.35;;;;;;;-0.59;77.55;98770.09;1710965;83;21593;-60
2021/04/08 00:42:42;;;;;;;10.03;4.78;;;;;;;-0.59;77.56;98778.11;1688628;84;21589;-60
2021/04/08 00:45:10;;;;;;;9.83;5.40;;;;;;;-0.59;77.49;98777.59;1694568;84;21138;-59
2021/04/08 00:47:38;;;;;;;9.33;5.40;;;;;;;-0.62;77.64;98783.39;1642333;86;21343;-59
2021/04/08 00:50:08;;;;;;;9.83;5.30;;;;;;;-0.61;77.61;98790.38;1695949;84;21175;-60
2021/04/08 00:52:37;;;;;;;9.88;5.45;;;;;;;-0.61;77.59;98792.23;1684157;84;21358;-60
2021/04/08 00:55:07;;;;;;;11.22;5.55;;;;;;;-0.64;77.70;98796.15;1700288;84;21119;-59
2021/04/08 00:57:35;;;;;;;14.58;6.33;;;;;;;-0.65;77.73;98788.38;1699797;84;21474;-60
2021/04/08 01:00:06;;;;;;;10.13;5.60;;;;;;;-0.67;77.80;98797.94;1711716;83;21304;-59
2021/04/08 01:02:34;;;;;;;12.58;6.35;;;;;;;-0.62;77.72;98802.63;1699366;84;21581;-59
2021/04/08 01:05:02;;;;;;;11.22;6.05;;;;;;;-0.65;77.73;98803.89;1658537;84;21144;-60
2021/04/08 01:07:33;;;;;;;10.60;4.97;;;;;;;-0.67;77.76;98807.28;1694992;84;21207;-60
2021/04/08 01:10:04;;;;;;;9.70;5.62;;;;;;;-0.67;77.76;98811.81;1697585;84;21304;-60
2021/04/08 01:12:31;;;;;;;9.83;4.95;;;;;;;-0.65;77.69;98811.09;1694731;84;21714;-60
2021/04/08 01:15:02;;;;;;;9.68;5.05;;;;;;;-0.66;77.65;98814.79;1691067;82;21185;-60
2021/04/08 01:18:09;;;;;;;8.78;5.55;;;;;;;-0.67;77.60;98811.81;1672867;85;21284;-60
2021/04/08 01:21:05;;;;;;;9.38;5.58;;;;;;;-0.72;77.73;98823.19;1672665;85;21191;-60
2021/04/08 01:23:56;;;;;;;8.75;5.40;;;;;;;-0.73;77.72;98821.55;1658172;86;21339;-61
2021/04/08 01:26:56;;;;;;;9.08;5.10;;;;;;;-0.74;77.71;98819.91;1681076;84;21192;-60
2021/04/08 01:30:06;;;;;;;8.18;4.83;;;;;;;-0.74;77.74;98822.58;1696260;84;21498;-60
2021/04/08 01:32:37;;;;;;;8.00;5.08;;;;;;;-0.73;77.68;98824.73;1702438;83;21224;-60
2021/04/08 01:35:08;;;;;;;8.20;5.60;;;;;;;-0.76;77.70;98832.69;1708128;84;21154;-60
2021/04/08 01:37:56;;;;;;;10.72;5.90;;;;;;;-0.76;77.71;98835.87;1660339;84;21853;-60
2021/04/08 01:40:24;;;;;;;11.43;5.72;;;;;;;-0.76;77.68;98846.05;1708683;84;21160;-60
2021/04/08 01:42:53;;;;;;;10.10;6.40;;;;;;;-0.78;77.72;98841.42;1672772;84;21331;-60
2021/04/08 01:45:23;;;;;;;10.30;6.62;;;;;;;-0.78;77.78;98856.66;1694948;84;21124;-60
2021/04/08 01:47:51;;;;;;;11.05;5.80;;;;;;;-0.80;77.81;98858.20;1643361;87;21341;-60
2021/04/08 01:50:19;;;;;;;12.37;6.20;;;;;;;-0.81;77.89;98854.41;1703231;83;21695;-60
2021/04/08 01:52:48;;;;;;;9.85;6.20;;;;;;;-0.85;77.95;98859.38;1669743;84;21174;-60
2021/04/08 01:55:18;;;;;;;9.65;5.92;;;;;;;-0.86;78.05;98852.93;1679178;84;21592;-60
2021/04/08 01:57:46;;;;;;;11.65;6.30;;;;;;;-0.85;78.02;98859.38;1672939;85;21191;-60
2021/04/08 02:00:17;;;;;;;12.05;6.50;;;;;;;-0.80;77.87;98866.22;1668868;84;21179;-60
2021/04/08 02:02:46;;;;;;;10.58;6.75;;;;;;;-0.81;77.86;98868.59;1701385;84;21186;-60
2021/04/08 02:05:16;;;;;;;14.47;7.12;;;;;;;-0.86;77.94;98872.97;1709583;83;21195;-60
2021/04/08 02:07:46;;;;;;;12.85;7.62;;;;;;;-0.83;77.86;98885.38;1701141;84;21342;-60
2021/04/08 02:10:15;;;;;;;13.62;7.55;;;;;;;-0.82;77.77;98873.66;1707255;84;21189;-61
2021/04/08 02:12:47;;;;;;;11.63;6.72;;;;;;;-0.81;77.68;98879.28;1704727;84;21605;-61
2021/04/08 02:15:20;;;;;;;13.45;8.30;;;;;;;-0.81;77.62;98885.96;1720372;82;21296;-61
2021/04/08 02:17:53;;;;;;;11.28;7.03;;;;;;;-0.87;77.70;98880.16;1706732;84;21167;-61
2021/04/08 02:20:26;;;;;;;11.78;7.42;;;;;;;-0.85;77.65;98886.09;1708139;84;21271;-61
2021/04/08 02:22:55;;;;;;;10.75;6.85;;;;;;;-0.88;77.68;98887.87;1707088;84;21200;-61
2021/04/08 02:25:24;;;;;;;10.40;7.12;;;;;;;-0.88;77.67;98897.73;1700967;84;21125;-61
2021/04/08 02:27:52;;;;;;;12.55;6.90;;;;;;;-0.92;77.79;98897.36;1676971;84;21162;-61
2021/04/08 02:30:23;;;;;;;12.60;6.60;;;;;;;-0.95;77.81;98908.48;1676472;84;21153;-61
2021/04/08 02:32:51;;;;;;;11.50;6.87;;;;;;;-0.96;77.80;98905.53;1707503;83;21216;-61
2021/04/08 02:35:19;;;;;;;12.03;6.60;;;;;;;-0.99;77.85;98907.28;1683963;84;21158;-61
2021/04/08 02:37:48;;;;;;;13.78;7.55;;;;;;;-0.99;77.85;98919.30;1679961;83;21283;-61
2021/04/08 02:40:20;;;;;;;12.95;7.40;;;;;;;-1.04;77.97;98915.97;1704732;83;21497;-61
2021/04/08 02:42:48;;;;;;;13.72;7.45;;;;;;;-1.05;78.10;98921.00;1652037;86;21201;-61
2021/04/08 02:45:18;;;;;;;10.72;6.75;;;;;;;-1.06;77.99;98915.86;1679346;85;21174;-62
2021/04/08 02:47:47;;;;;;;13.15;8.23;;;;;;;-1.10;78.11;98920.03;1711079;83;21152;-61
2021/04/08 02:50:14;;;;;;;13.08;7.65;;;;;;;-1.09;78.11;98922.97;1700434;83;21167;-61
2021/04/08 02:53:05;;;;;;;12.18;7.75;;;;;;;-1.07;78.06;98928.94;1679426;84;21688;-61
2021/04/08 02:55:53;;;;;;;13.78;8.18;;;;;;;-1.09;78.06;98928.31;1718624;83;21597;-60
2021/04/08 02:58:21;;;;;;;13.13;7.58;;;;;;;-1.11;78.16;98937.90;1717912;83;21201;-60
2021/04/08 03:00:54;;;;;;;13.85;7.83;;;;;;;-1.12;78.15;98938.11;1717455;83;21323;-60
2021/04/08 03:03:26;;;;;;;16.62;9.03;;;;;;;-1.16;78.23;98937.72;1697606;83;21164;-60
2021/04/08 03:05:53;;;;;;;12.35;7.87;;;;;;;-1.15;78.20;98939.88;1684507;83;21185;-60
2021/04/08 03:08:21;;;;;;;15.55;8.80;;;;;;;-1.16;78.21;98943.57;1718266;83;21201;-60
2021/04/08 03:10:48;;;;;;;17.60;8.95;;;;;;;-1.19;78.29;98952.02;1707049;82;21189;-59
2021/04/08 03:13:17;;;;;;;12.28;7.97;;;;;;;-1.21;78.29;98956.25;1710597;83;21230;-60
2021/04/08 03:15:45;;;;;;;11.33;7.42;;;;;;;-1.23;78.36;98961.48;1711287;82;21173;-60
2021/04/08 03:18:17;;;;;;;12.37;8.03;;;;;;;-1.18;78.15;98967.02;1717070;83;21213;-60
2021/04/08 03:20:53;;;;;;;15.50;7.70;;;;;;;-1.16;78.10;98965.77;1713266;83;21132;-60
2021/04/08 03:23:23;;;;;;;11.25;7.72;;;;;;;-1.17;78.04;98965.45;1717948;83;21209;-59
2021/04/08 03:25:53;;;;;;;10.93;7.90;;;;;;;-1.16;77.97;98968.94;1709174;83;21144;-60
2021/04/08 03:28:20;;;;;;;12.03;7.62;;;;;;;-1.19;77.98;98975.55;1710514;83;21194;-60
2021/04/08 03:30:48;;;;;;;13.88;7.70;;;;;;;-1.16;77.98;98978.29;1715361;83;21169;-60
2021/04/08 03:33:16;;;;;;;11.80;7.58;;;;;;;-1.18;78.00;98981.19;1703881;83;21594;-59
2021/04/08 03:35:47;;;;;;;12.33;8.40;;;;;;;-1.12;77.84;98988.84;1693897;84;21615;-60
2021/04/08 03:38:16;;;;;;;12.98;8.03;;;;;;;-1.17;77.91;98990.03;1707749;82;21623;-60
2021/04/08 03:40:45;;;;;;;14.80;8.60;;;;;;;-1.17;77.86;98986.81;1695768;84;21147;-60
2021/04/08 03:43:13;;;;;;;13.65;8.08;;;;;;;-1.15;77.83;98984.77;1699120;84;21163;-59
2021/04/08 03:45:42;;;;;;;13.30;8.70;;;;;;;-1.14;77.75;98993.09;1700391;84;21584;-60
2021/04/08 03:48:12;;;;;;;16.10;10.08;;;;;;;-1.15;77.76;98988.77;1691040;84;21197;-60
2021/04/08 03:50:41;;;;;;;13.25;9.20;;;;;;;-1.16;77.76;98992.47;1695991;84;21708;-60
2021/04/08 03:53:09;;;;;;;11.83;7.75;;;;;;;-1.12;77.71;99002.20;1702424;84;21254;-59
2021/04/08 03:55:38;;;;;;;14.40;8.98;;;;;;;-1.13;77.82;99003.23;1698740;84;21158;-59
2021/04/08 03:58:07;;;;;;;16.32;8.73;;;;;;;-1.14;77.85;99002.44;1647201;84;21182;-59
2021/04/08 04:00:35;;;;;;;13.88;8.35;;;;;;;-1.12;77.89;99006.21;1696603;84;21178;-60
2021/04/08 04:03:03;;;;;;;14.55;8.55;;;;;;;-1.09;77.83;98997.25;1699251;84;21819;-60
2021/04/08 04:05:31;;;;;;;14.90;8.45;;;;;;;-1.09;77.92;99006.60;1697636;84;22022;-60
2021/04/08 04:08:00;;;;;;;14.47;8.70;;;;;;;-1.02;77.89;99015.91;1698595;84;21178;-60
2021/04/08 04:10:29;;;;;;;13.08;8.83;;;;;;;-0.99;77.89;99016.81;1637055;84;21198;-60
2021/04/08 04:12:57;;;;;;;14.28;8.53;;;;;;;-0.86;77.73;99011.41;1695939;84;21402;-60
2021/04/08 04:15:25;;;;;;;13.58;8.13;;;;;;;-0.80;77.38;99017.21;1704228;82;21177;-60
2021/04/08 04:17:53;;;;;;;15.43;9.70;;;;;;;-0.69;77.18;99017.86;1698439;84;21174;-59
2021/04/08 04:20:21;;;;;;;15.18;9.05;;;;;;;-0.59;76.81;99022.20;1697382;83;21207;-60
2021/04/08 04:22:49;;;;;;;12.50;7.50;;;;;;;-0.47;76.47;99016.97;1701141;84;21162;-60
2021/04/08 04:25:18;;;;;;;14.95;9.05;;;;;;;-0.32;76.24;99031.36;1705838;83;21218;-60
2021/04/08 04:27:46;;;;;;;13.60;8.28;;;;;;;-0.23;76.15;99032.70;1697910;84;21208;-60
2021/04/08 04:30:16;;;;;;;13.53;8.68;;;;;;;-0.07;75.89;99038.30;1697691;84;21680;-60
2021/04/08 04:32:43;;;;;;;13.60;8.90;;;;;;;0.11;75.41;99038.85;1693772;84;21291;-59
2021/04/08 04:35:12;;;;;;;13.88;8.90;;;;;;;0.22;74.72;99036.78;1710700;84;21176;-60
2021/04/08 04:37:40;;;;;;;13.83;8.48;;;;;;;0.27;74.29;99047.66;1703023;84;21194;-60
2021/04/08 04:40:09;;;;;;;12.65;8.65;;;;;;;0.28;74.02;99049.82;1699675;84;21180;-59
2021/04/08 04:42:37;;;;;;;11.73;8.33;;;;;;;0.27;73.91;99053.02;1656492;84;21338;-60
2021/04/08 04:45:06;;;;;;;14.70;9.55;;;;;;;0.28;73.99;99050.64;1701183;84;21171;-60
2021/04/08 04:47:33;;;;;;;16.77;10.58;;;;;;;0.28;74.17;99048.48;1708935;82;21573;-59
2021/04/08 04:50:01;;;;;;;13.43;9.58;;;;;;;0.32;73.79;99054.48;1704066;84;21159;-60
2021/04/08 04:52:29;;;;;;;12.35;8.83;;;;;;;0.34;73.65;99072.50;1665608;84;21189;-60
2021/04/08 04:54:56;;;;;;;15.23;9.05;;;;;;;0.33;73.91;99076.21;1707450;84;21182;-60
2021/04/08 04:57:24;;;;;;;13.80;9.15;;;;;;;0.34;73.93;99076.52;1711127;82;21632;-60
2021/04/08 04:59:52;;;;;;;14.38;9.38;;;;;;;0.36;73.89;99073.09;1710522;83;21654;-60
2021/04/08 05:02:20;;;;;;;16.75;10.48;;;;;;;0.36;74.07;99077.10;1694564;84;21292;-60
2021/04/08 05:04:47;;;;;;;14.40;9.83;;;;;;;0.38;74.09;99075.03;1702272;84;21221;-60
2021/04/08 05:07:14;;;;;;;14.20;9.40;;;;;;;0.50;74.17;99076.44;1704225;84;21561;-60
2021/04/08 05:09:42;;;;;;;11.22;8.43;;;;;;;0.66;74.01;99091.93;1705835;84;21131;-60
2021/04/08 05:12:10;;;;;;;15.60;8.93;;;;;;;0.80;73.62;99085.38;1703688;84;21658;-60
2021/04/08 05:14:38;;;;;;;16.20;9.98;;;;;;;0.90;73.25;99083.50;1700823;82;21285;-60
2021/04/08 05:17:07;;;;;;;16.15;9.70;;;;;;;0.86;72.61;99091.69;1712861;84;21162;-60
2021/04/08 05:19:34;;;;;;;12.45;9.35;;;;;;;0.86;72.66;99087.14;1698299;84;21209;-61
2021/04/08 05:22:02;;;;;;;13.78;8.88;;;;;;;0.93;73.16;99097.78;1701009;84;21914;-61
2021/04/08 05:24:31;;;;;;;13.10;9.23;;;;;;;1.08;73.30;99092.03;1690958;84;21788;-60
2021/04/08 05:26:59;;;;;;;12.65;9.20;;;;;;;1.23;73.28;99099.98;1682704;84;21601;-61
2021/04/08 05:29:27;;;;;;;14.95;9.65;;;;;;;1.34;72.83;99102.41;1708062;84;21193;-60
2021/04/08 05:31:54;;;;;;;15.25;10.23;;;;;;;1.52;72.36;99093.49;1643011;87;21211;-60
2021/04/08 05:34:22;;;;;;;13.90;9.75;;;;;;;1.63;71.74;99102.10;1657909;86;21198;-59
2021/04/08 05:36:50;;;;;;;16.23;9.65;;;;;;;1.64;71.22;99096.48;1700104;84;21118;-59
2021/04/08 05:39:17;;;;;;;12.33;9.08;;;;;;;1.57;71.05;99100.31;1694315;84;21161;-59
2021/04/08 05:41:45;;;;;;;14.15;9.30;;;;;;;1.53;71.45;99108.52;1701662;83;21143;-59
2021/04/08 05:44:12;;;;;;;13.93;9.03;;;;;;;1.42;71.61;99099.39;1706674;84;21142;-58
2021/04/08 05:46:40;;;;;;;12.30;9.33;;;;;;;1.48;71.56;99117.27;1686684;84;21158;-59
2021/04/08 05:49:08;;;;;;;13.15;8.98;;;;;;;1.52;71.59;99120.31;1705496;82;21154;-59
2021/04/08 05:51:35;;;;;;;13.38;10.13;;;;;;;1.60;72.03;99128.84;1700040;82;21664;-59
2021/04/08 05:54:07;;;;;;;14.63;9.18;;;;;;;1.78;72.07;99123.94;1684380;84;21327;-59
2021/04/08 05:56:34;;;;;;;14.83;10.15;;;;;;;1.80;70.79;99125.36;1692508;84;21505;-60
2021/04/08 05:59:02;;;;;;;16.02;10.45;;;;;;;1.81;70.67;99122.13;1699381;84;21153;-59
2021/04/08 06:01:29;;;;;;;17.85;10.68;;;;;;;1.65;71.26;99128.16;1687693;84;21322;-59
2021/04/08 06:03:57;;;;;;;14.70;9.95;;;;;;;1.54;71.84;99132.45;1692039;84;21188;-59
2021/04/08 06:06:25;;;;;;;14.70;10.48;;;;;;;1.53;72.04;99134.00;1697943;84;21169;-60
2021/04/08 06:08:53;;;;;;;16.50;10.15;;;;;;;1.52;72.11;99133.21;1693966;84;21231;-59
2021/04/08 06:11:20;;;;;;;13.90;10.00;;;;;;;1.46;72.77;99135.44;1698124;84;21688;-58
2021/04/08 06:13:49;;;;;;;15.35;10.30;;;;;;;1.53;72.96;99140.19;1707807;84;21195;-58
2021/04/08 06:16:16;;;;;;;17.02;11.57;;;;;;;1.62;72.93;99151.43;1683284;84;21295;-58
2021/04/08 06:18:48;;;;;;;15.80;11.33;;;;;;;1.63;72.64;99152.53;1703866;84;21146;-58
2021/04/08 06:21:16;;;;;;;17.25;10.68;;;;;;;1.60;73.23;99148.14;1691802;84;21177;-60
2021/04/08 06:23:43;;;;;;;15.68;10.13;;;;;;;1.61;73.47;99145.77;1702051;82;21337;-59
2021/04/08 06:26:11;;;;;;;14.65;10.35;;;;;;;1.77;73.10;99153.97;1683707;84;21178;-61
2021/04/08 06:28:39;;;;;;;15.20;10.50;;;;;;;1.77;72.19;99154.52;1703624;82;21145;-59
2021/04/08 06:31:07;;;;;;;16.05;11.57;;;;;;;1.72;72.13;99159.74;1681182;84;21184;-60
2021/04/08 06:33:34;;;;;;;16.37;11.40;;;;;;;1.80;72.89;99159.42;1688670;84;21142;-60
2021/04/08 06:36:08;;;;;;;17.05;12.07;;;;;;;1.95;72.43;99159.80;1679551;84;21142;-59
2021/04/08 06:38:36;;;;;;;16.40;11.33;;;;;;;2.00;72.83;99161.28;1694907;84;21383;-59
2021/04/08 06:41:04;;;;;;;15.68;10.65;;;;;;;1.93;72.24;99163.25;1678862;84;21145;-59
2021/04/08 06:43:32;;;;;;;16.67;11.22;;;;;;;2.02;72.56;99166.43;1683374;84;21980;-58
2021/04/08 06:46:00;;;;;;;16.17;11.35;;;;;;;2.13;72.31;99170.45;1696648;82;21159;-60
2021/04/08 06:48:49;;;;;;;17.00;11.48;;;;;;;2.12;71.94;99168.02;1681934;82;21215;-60
2021/04/08 06:51:20;;;;;;;14.55;11.12;;;;;;;2.09;72.11;99180.57;1707853;82;21329;-60
2021/04/08 06:53:48;;;;;;;17.00;11.88;;;;;;;2.16;72.49;99175.36;1705065;84;21318;-59
2021/04/08 06:56:15;;;;;;;13.28;9.95;;;;;;;2.27;71.58;99179.12;1693231;84;21166;-61
2021/04/08 06:58:43;;;;;;;16.60;11.43;;;;;;;2.20;70.63;99180.56;1640979;86;21190;-58
2021/04/08 07:01:13;;;;;;;15.38;11.48;;;;;;;2.09;70.76;99180.57;1690247;84;21121;-60
2021/04/08 07:03:42;;;;;;;17.25;12.25;;;;;;;2.14;72.24;99180.68;1689749;82;21146;-59
2021/04/08 07:06:10;;;;;;;18.55;11.68;;;;;;;2.25;71.34;99186.59;1658488;84;21311;-60
2021/04/08 07:08:39;;;;;;;18.48;13.38;;;;;;;2.23;71.32;99188.16;1681890;84;21199;-60
2021/04/08 07:11:07;;;;;;;15.35;11.48;;;;;;;2.26;71.62;99191.75;1700180;82;21173;-59
2021/04/08 07:13:36;;;;;;;16.25;11.97;;;;;;;2.53;72.35;99199.36;1709003;84;21174;-60
2021/04/08 07:16:04;;;;;;;14.03;9.65;;;;;;;2.66;69.86;99199.94;1703127;84;21175;-60
2021/04/08 07:18:32;;;;;;;16.52;11.90;;;;;;;2.63;68.56;99195.56;1687070;84;21477;-60
2021/04/08 07:20:59;;;;;;;16.62;11.12;;;;;;;2.63;69.71;99204.97;1689326;82;21259;-60
2021/04/08 07:23:27;;;;;;;14.95;11.20;;;;;;;2.62;69.25;99216.78;1694907;84;21211;-59
2021/04/08 07:26:10;;;;;;;15.65;11.20;;;;;;;2.81;69.08;99210.23;1698660;84;21150;-59
2021/04/08 07:28:42;;;;;;;16.42;11.28;;;;;;;2.84;68.91;99203.86;1699183;84;21133;-60
2021/04/08 07:31:29;;;;;;;16.10;11.10;;;;;;;3.00;69.28;99208.54;1688025;84;21157;-60
2021/04/08 07:33:59;;;;;;;14.60;11.22;;;;;;;3.31;69.15;99209.17;1682953;82;21315;-60
2021/04/08 07:36:34;;;;;;;14.38;10.80;;;;;;;3.83;67.28;99212.62;1694510;83;21141;-60
2021/04/08 07:39:17;;;;;;;14.25;10.53;;;;;;;4.16;65.44;99218.63;1702671;83;21344;-60
2021/04/08 07:41:45;;;;;;;15.32;10.90;;;;;;;4.43;64.61;99219.09;1694111;83;21174;-60
2021/04/08 07:44:12;;;;;;;15.40;11.18;;;;;;;4.72;63.32;99225.22;1679770;83;21829;-60
2021/04/08 07:46:46;;;;;;;13.70;10.48;;;;;;;4.81;63.13;99225.64;1712452;83;21668;-60
2021/04/08 07:49:32;;;;;;;15.35;10.95;;;;;;;4.77;60.84;99226.66;1708886;82;21160;-60
2021/04/08 07:52:22;;;;;;;14.50;11.00;;;;;;;4.60;61.62;99221.81;1709400;83;21145;-60
2021/04/08 07:55:15;;;;;;;12.20;9.68;;;;;;;4.37;62.08;99237.59;1710209;83;21188;-60
2021/04/08 07:58:08;;;;;;;13.20;10.58;;;;;;;4.30;62.75;99239.63;1695550;83;21184;-60
2021/04/08 08:00:41;;;;;;;13.18;10.23;;;;;;;4.30;62.89;99242.33;1695795;83;21303;-60
2021/04/08 08:03:28;;;;;;;14.60;10.82;;;;;;;4.25;61.73;99242.22;1708796;83;21177;-60
2021/04/08 08:08:41;;;;;;;12.18;8.98;;;;;;;3.99;60.70;99241.49;1736783;79;22852;-58
2021/04/08 08:11:14;;;;;;;13.95;10.63;;;;;;;3.94;61.46;99248.94;1709015;83;21172;-58
2021/04/08 08:13:51;;;;;;;11.88;9.03;;;;;;;3.99;61.56;99252.27;1721982;83;21156;-58
2021/04/08 08:16:23;;;;;;;14.18;10.43;;;;;;;4.10;60.91;99254.09;1710116;83;21173;-58
2021/04/08 08:18:51;;;;;;;13.05;9.30;;;;;;;4.32;61.25;99253.66;1703196;83;21180;-58
2021/04/08 08:21:39;;;;;;;14.25;10.15;;;;;;;4.57;61.45;99260.58;1703791;83;21302;-58
2021/04/08 08:24:10;;;;;;;16.20;9.63;;;;;;;4.75;60.30;99249.52;1707886;83;21176;-60
2021/04/08 08:26:43;;;;;;;12.18;9.20;;;;;;;4.86;59.80;99244.05;1683675;83;21641;-61
2021/04/08 08:29:16;;;;;;;12.78;9.18;;;;;;;4.80;59.38;99254.48;1715506;83;21180;-60
2021/04/08 08:32:00;;;;;;;12.45;9.58;;;;;;;4.73;58.57;99257.05;1720989;83;21208;-60
2021/04/08 08:34:35;;;;;;;11.55;8.70;;;;;;;4.80;58.88;99265.80;1752117;82;21712;-60
2021/04/08 08:37:11;;;;;;;10.15;8.15;;;;;;;4.98;58.55;99259.63;1656562;84;21726;-60
2021/04/08 08:39:42;;;;;;;9.60;7.40;;;;;;;5.11;54.51;99269.23;1708652;83;21153;-61
2021/04/08 08:42:14;;;;;;;10.63;7.47;;;;;;;5.03;55.65;99258.86;1692301;83;21192;-60
2021/04/08 08:44:42;;;;;;;10.10;7.90;;;;;;;4.98;55.85;99270.94;1708120;83;21304;-60
2021/04/08 08:47:21;;;;;;;11.78;7.67;;;;;;;5.06;56.67;99265.66;1703026;83;21609;-61
2021/04/08 08:50:01;;;;;;;11.40;8.03;;;;;;;5.24;58.39;99277.53;1674996;84;21279;-61
2021/04/08 08:52:36;;;;;;;12.45;7.42;;;;;;;5.49;57.59;99270.58;1629186;86;21314;-60
2021/04/08 08:55:11;;;;;;;9.35;6.55;;;;;;;5.66;54.69;99281.35;1656248;85;21689;-61
2021/04/08 08:57:39;;;;;;;8.55;6.10;;;;;;;5.67;53.84;99273.52;1668363;84;21314;-60
2021/04/08 09:00:08;;;;;;;8.80;6.28;;;;;;;5.72;52.36;99262.78;1647647;86;21172;-60
2021/04/08 09:02:37;;;;;;;10.05;6.53;;;;;;;5.85;52.75;99283.19;1641442;83;21860;-61
2021/04/08 09:05:11;;;;;;;10.55;7.87;;;;;;;5.98;52.28;99284.20;1739739;82;21283;-61
2021/04/08 09:07:39;;;;;;;11.20;7.70;;;;;;;6.14;53.76;99287.88;1688060;83;21182;-61
2021/04/08 09:10:09;;;;;;;10.70;8.03;;;;;;;6.33;51.11;99279.71;1640921;86;21623;-60
2021/04/08 09:12:36;;;;;;;11.28;7.40;;;;;;;6.35;52.22;99291.08;1702947;83;21623;-61
2021/04/08 09:15:06;;;;;;;14.23;7.10;;;;;;;6.26;50.12;99295.31;1672322;83;21137;-60
2021/04/08 09:17:47;;;;;;;11.57;8.13;;;;;;;6.31;51.77;99297.52;1712212;83;21220;-61
2021/04/08 09:20:17;;;;;;;9.05;6.25;;;;;;;6.43;52.66;99295.50;1696811;83;21161;-60
2021/04/08 09:23:08;;;;;;;9.80;6.28;;;;;;;6.63;52.35;99293.51;1698293;83;21141;-61
2021/04/08 09:25:50;;;;;;;10.25;6.58;;;;;;;6.60;51.29;99295.91;1700276;83;21145;-61
2021/04/08 09:28:19;;;;;;;9.75;7.00;;;;;;;6.44;50.03;99290.38;1707424;83;21577;-60
2021/04/08 09:30:58;;;;;;;12.43;7.53;;;;;;;6.37;50.84;99299.23;1709450;83;21161;-61
2021/04/08 09:33:49;;;;;;;9.10;6.03;;;;;;;6.49;52.87;99300.41;1721012;82;21159;-61
2021/04/08 09:36:24;;;;;;;14.90;11.03;;;;;;;6.70;49.49;99291.94;1644411;86;21160;-61
2021/04/08 09:38:56;;;;;;;19.82;15.10;;;;;;;6.62;48.08;99298.66;1707588;82;21609;-61
2021/04/08 09:41:52;;;;;;;9.23;6.85;;;;;;;6.74;49.85;99299.83;1707775;83;21171;-61
2021/04/08 09:44:20;;;;;;;6.30;4.70;;;;;;;7.07;49.53;99288.74;1704480;83;21985;-61
2021/04/08 09:46:54;;;;;;;8.40;5.33;;;;;;;7.17;45.35;99290.16;1638781;86;21192;-60
2021/04/08 09:49:46;;;;;;;8.63;5.03;;;;;;;7.06;46.07;99307.94;1703561;83;21194;-61
2021/04/08 09:52:14;;;;;;;8.50;5.12;;;;;;;6.93;45.52;99291.61;1709027;83;21205;-61
2021/04/08 09:54:52;;;;;;;11.45;8.13;;;;;;;6.82;46.19;99306.13;1654100;86;21185;-60
2021/04/08 09:57:38;;;;;;;9.35;5.85;;;;;;;6.79;45.82;99303.94;1704134;83;21165;-60
2021/04/08 10:00:12;;;;;;;9.95;5.45;;;;;;;6.62;46.61;99304.07;1696262;83;21180;-60
2021/04/08 10:02:59;;;;;;;8.30;6.00;;;;;;;6.55;45.92;99310.22;1719422;82;22042;-61
2021/04/08 10:05:39;;;;;;;13.65;9.33;;;;;;;6.61;48.45;99303.78;1716708;83;21695;-61
2021/04/08 10:08:09;;;;;;;10.58;6.58;;;;;;;6.51;45.86;99305.05;1712098;83;21324;-61
2021/04/08 10:10:44;;;;;;;9.75;6.62;;;;;;;6.33;47.02;99312.97;1692013;84;21133;-60
2021/04/08 10:13:28;;;;;;;9.33;6.25;;;;;;;6.26;48.01;99311.00;1684107;84;21520;-60
2021/04/08 10:16:00;;;;;;;8.55;6.20;;;;;;;6.40;49.42;99312.23;1699216;82;21174;-61
2021/04/08 10:18:30;;;;;;;11.00;5.87;;;;;;;6.69;48.45;99307.37;1606233;88;21227;-61
2021/04/08 10:21:02;;;;;;;10.58;6.03;;;;;;;6.86;48.39;99309.95;1694948;82;21180;-61
2021/04/08 10:23:42;;;;;;;10.35;6.20;;;;;;;7.05;48.96;99310.38;1707231;84;21645;-60
2021/04/08 10:26:24;;;;;;;9.98;5.95;;;;;;;7.16;47.34;99307.47;1691153;82;21574;-61
2021/04/08 10:28:55;;;;;;;11.60;7.30;;;;;;;6.99;47.40;99314.39;1690967;84;21736;-60
2021/04/08 10:32:34;;;;;;;9.88;6.72;;;;;;;6.80;50.10;99298.25;1755374;79;23014;-58
2021/04/08 10:35:04;;;;;;;9.65;5.83;;;;;;;7.03;51.07;99310.62;1724818;81;21149;-60
2021/04/08 10:37:32;;;;;;;11.18;6.12;;;;;;;7.31;46.63;99311.65;1721744;83;21133;-61
2021/04/08 10:39:59;;;;;;;8.08;6.03;;;;;;;7.29;46.04;99323.29;1709325;83;21182;-61
2021/04/08 10:42:27;;;;;;;12.50;6.15;;;;;;;7.18;46.78;99312.11;1718967;83;21980;-61
2021/04/08 10:44:56;;;;;;;8.93;5.20;;;;;;;7.07;44.90;99310.93;1705609;83;21292;-61
2021/04/08 10:47:25;;;;;;;7.95;5.22;;;;;;;6.96;45.39;99308.68;1719006;82;21157;-61
2021/04/08 10:50:00;;;;;;;7.80;5.42;;;;;;;6.97;44.75;99310.32;1707221;83;21545;-61
2021/04/08 10:52:31;;;;;;;10.58;6.12;;;;;;;7.24;46.10;99306.17;1646462;85;21619;-60
2021/04/08 10:55:10;;;;;;;9.53;6.12;;;;;;;7.54;44.19;99301.50;1677461;85;21167;-61
2021/04/08 10:57:39;;;;;;;8.35;5.37;;;;;;;7.76;45.48;99307.59;1688856;85;22004;-61
2021/04/08 11:00:08;;;;;;;7.90;4.97;;;;;;;8.00;44.38;99304.17;1688871;85;21679;-61
2021/04/08 11:02:40;;;;;;;14.23;10.00;;;;;;;8.20;43.68;99305.31;1669794;84;21209;-63
2021/04/08 11:05:25;;;;;;;45.40;28.65;;;;;;;8.15;39.97;99305.31;1656788;85;21177;-61
2021/04/08 11:07:57;;;;;;;6.80;4.30;;;;;;;7.97;40.62;99307.39;1668644;85;21206;-61
2021/04/08 11:10:27;;;;;;;9.28;4.25;;;;;;;7.95;40.69;99312.27;1675087;85;21190;-60
2021/04/08 11:12:57;;;;;;;9.73;6.70;;;;;;;8.03;39.44;99308.78;1679750;84;21216;-61
2021/04/08 11:15:29;;;;;;;10.63;7.10;;;;;;;8.14;39.80;99312.63;1676940;85;21180;-61
2021/04/08 11:18:02;;;;;;;9.55;5.87;;;;;;;8.27;40.34;99311.30;1668246;85;21166;-62
2021/04/08 11:20:35;;;;;;;8.65;5.35;;;;;;;8.41;40.04;99307.03;1691894;83;21201;-62
2021/04/08 11:23:03;;;;;;;11.95;5.00;;;;;;;8.64;40.03;99313.33;1695215;83;21176;-61
2021/04/08 11:25:33;;;;;;;6.80;4.62;;;;;;;8.73;39.28;99310.88;1649470;86;21175;-62
2021/04/08 11:28:02;;;;;;;6.60;4.20;;;;;;;8.78;40.34;99312.25;1686621;85;21217;-63
2021/04/08 11:30:38;;;;;;;7.83;4.15;;;;;;;8.89;38.79;99311.97;1675579;85;21343;-63
2021/04/08 11:33:13;;;;;;;6.58;3.80;;;;;;;8.81;38.70;99322.56;1689930;82;21163;-62
2021/04/08 11:35:43;;;;;;;6.78;3.72;;;;;;;8.71;37.07;99325.27;1678019;84;21356;-61
2021/04/08 11:38:23;;;;;;;7.92;3.62;;;;;;;8.66;37.07;99319.82;1710962;83;21177;-62
2021/04/08 11:41:04;;;;;;;7.87;4.25;;;;;;;8.62;37.47;99324.16;1703087;83;21441;-63
2021/04/08 11:43:34;;;;;;;5.58;3.85;;;;;;;8.45;38.25;99333.36;1641750;87;21202;-62
2021/04/08 11:46:05;;;;;;;7.75;3.98;;;;;;;8.13;38.50;99348.13;1701215;83;21581;-62
2021/04/08 11:48:44;;;;;;;6.87;4.58;;;;;;;7.72;40.42;99345.77;1650226;85;21818;-63
2021/04/08 11:51:13;;;;;;;8.28;4.65;;;;;;;7.38;40.80;99354.20;1708904;83;21680;-60
2021/04/08 11:53:42;;;;;;;9.23;4.37;;;;;;;7.19;40.98;99371.92;1715890;83;21153;-60
2021/04/08 11:56:31;;;;;;;15.95;10.78;;;;;;;7.08;42.44;99349.11;1715834;83;21708;-59